createdAt,value
2018-11-27T00:00:24.650Z,56.20
2018-11-27T00:01:24.421Z,55.00
2018-11-27T00:02:24.417Z,54.10
2018-11-27T00:03:24.413Z,52.70
2018-11-27T00:04:24.406Z,53.60
2018-11-27T00:05:24.378Z,57.80
2018-11-27T00:06:24.393Z,53.60
2018-11-27T00:07:24.355Z,56.00
2018-11-27T00:08:24.391Z,52.90
2018-11-27T00:09:24.343Z,53.50
2018-11-27T00:10:24.335Z,56.00
2018-11-27T00:11:24.309Z,55.90
2018-11-27T00:12:24.300Z,52.70
2018-11-27T00:13:24.302Z,54.80
2018-11-27T00:14:24.681Z,56.80
2018-11-27T00:15:24.274Z,54.80
2018-11-27T00:16:24.263Z,55.40
2018-11-27T00:17:24.285Z,56.30
2018-11-27T00:18:24.234Z,55.10
2018-11-27T00:19:24.226Z,56.10
2018-11-27T00:20:24.230Z,55.40
2018-11-27T00:21:25.026Z,53.60
2018-11-27T00:22:24.380Z,53.60
2018-11-27T00:23:24.205Z,55.80
2018-11-27T00:24:24.176Z,57.40
2018-11-27T00:25:24.163Z,55.90
2018-11-27T00:26:24.147Z,53.70
2018-11-27T00:27:24.169Z,55.90
2018-11-27T00:28:24.127Z,54.20
2018-11-27T00:29:24.133Z,57.00
2018-11-27T00:30:24.113Z,54.30
2018-11-27T00:31:24.096Z,55.10
2018-11-27T00:32:24.100Z,58.20
2018-11-27T00:33:24.088Z,55.00
2018-11-27T00:34:24.057Z,56.50
2018-11-27T00:35:24.069Z,57.40
2018-11-27T00:36:24.041Z,53.80
2018-11-27T00:37:25.283Z,56.90
2018-11-27T00:38:24.136Z,55.80
2018-11-27T00:39:24.017Z,55.90
2018-11-27T00:40:24.010Z,54.00
2018-11-27T00:41:23.990Z,54.60
2018-11-27T00:42:23.978Z,55.00
2018-11-27T00:43:23.964Z,52.80
2018-11-27T00:44:23.956Z,53.80
2018-11-27T00:45:23.980Z,54.30
2018-11-27T00:46:23.930Z,55.30
2018-11-27T00:47:23.916Z,55.00
2018-11-27T00:48:23.938Z,57.10
2018-11-27T00:49:23.917Z,57.40
2018-11-27T00:50:23.891Z,52.00
2018-11-27T00:51:23.871Z,55.00
2018-11-27T00:52:23.868Z,57.20
2018-11-27T00:53:23.861Z,53.70
2018-11-27T00:54:23.846Z,53.90
2018-11-27T00:55:23.876Z,54.20
2018-11-27T00:56:23.831Z,58.00
2018-11-27T00:57:23.811Z,55.20
2018-11-27T00:58:23.800Z,54.30
2018-11-27T00:59:23.823Z,51.90
2018-11-27T01:00:23.794Z,54.50
2018-11-27T01:01:23.771Z,54.50
2018-11-27T01:02:23.760Z,56.40
2018-11-27T01:03:23.756Z,54.50
2018-11-27T01:04:23.735Z,59.00
2018-11-27T01:05:23.755Z,56.90
2018-11-27T01:06:23.724Z,52.20
2018-11-27T01:07:23.704Z,58.40
2018-11-27T01:08:23.693Z,56.20
2018-11-27T01:09:23.683Z,52.50
2018-11-27T01:10:23.684Z,55.80
2018-11-27T01:11:23.690Z,57.30
2018-11-27T01:12:23.653Z,56.00
2018-11-27T01:13:23.646Z,55.90
2018-11-27T01:14:23.623Z,57.60
2018-11-27T01:15:23.616Z,58.80
2018-11-27T01:16:23.625Z,53.70
2018-11-27T01:17:23.608Z,56.70
2018-11-27T01:18:23.591Z,53.90
2018-11-27T01:19:23.574Z,55.70
2018-11-27T01:20:23.560Z,58.60
2018-11-27T01:21:23.569Z,58.80
2018-11-27T01:22:23.550Z,57.20
2018-11-27T01:23:23.544Z,59.10
2018-11-27T01:24:23.524Z,53.20
2018-11-27T01:25:23.507Z,55.60
2018-11-27T01:26:23.546Z,57.10
2018-11-27T01:27:23.486Z,57.30
2018-11-27T01:28:23.474Z,56.20
2018-11-27T01:29:23.480Z,53.20
2018-11-27T01:30:23.459Z,59.40
2018-11-27T01:31:23.441Z,59.20
2018-11-27T01:32:23.447Z,57.80
2018-11-27T01:33:23.440Z,56.00
2018-11-27T01:34:23.418Z,57.00
2018-11-27T01:35:23.421Z,53.80
2018-11-27T01:36:23.394Z,56.90
2018-11-27T01:37:23.390Z,56.10
2018-11-27T01:38:23.374Z,57.10
2018-11-27T01:39:23.400Z,58.50
2018-11-27T01:40:23.344Z,59.60
2018-11-27T01:41:23.358Z,54.20
2018-11-27T01:42:23.322Z,56.00
2018-11-27T01:43:23.310Z,55.10
2018-11-27T01:44:23.304Z,55.30
2018-11-27T01:45:23.305Z,52.80
2018-11-27T01:46:23.283Z,59.40
2018-11-27T01:47:23.286Z,56.00
2018-11-27T01:48:23.260Z,53.40
2018-11-27T01:49:23.262Z,54.20
2018-11-27T01:50:23.244Z,53.10
2018-11-27T01:51:23.227Z,55.30
2018-11-27T01:52:23.220Z,54.30
2018-11-27T01:53:23.238Z,54.80
2018-11-27T01:54:23.203Z,56.40
2018-11-27T01:55:23.211Z,50.30
2018-11-27T01:56:23.172Z,54.90
2018-11-27T01:57:23.157Z,53.90
2018-11-27T01:58:23.163Z,53.50
2018-11-27T01:59:23.159Z,55.50
2018-11-27T02:00:23.130Z,54.20
2018-11-27T02:01:23.119Z,54.60
2018-11-27T02:02:23.111Z,54.70
2018-11-27T02:03:23.131Z,54.10
2018-11-27T02:04:23.089Z,54.20
2018-11-27T02:05:23.081Z,55.40
2018-11-27T02:06:23.066Z,52.60
2018-11-27T02:07:23.054Z,52.70
2018-11-27T02:08:23.042Z,54.70
2018-11-27T02:09:23.047Z,55.80
2018-11-27T02:10:23.026Z,55.40
2018-11-27T02:11:23.022Z,57.10
2018-11-27T02:12:23.012Z,52.40
2018-11-27T02:13:22.986Z,56.00
2018-11-27T02:14:22.981Z,55.40
2018-11-27T02:15:22.967Z,55.10
2018-11-27T02:16:22.976Z,57.50
2018-11-27T02:17:22.959Z,56.10
2018-11-27T02:18:22.958Z,56.30
2018-11-27T02:19:22.922Z,56.90
2018-11-27T02:20:22.936Z,51.80
2018-11-27T02:21:22.898Z,59.30
2018-11-27T02:22:22.889Z,55.90
2018-11-27T02:23:22.892Z,57.60
2018-11-27T02:24:22.865Z,55.70
2018-11-27T02:25:22.873Z,56.50
2018-11-27T02:26:22.852Z,54.80
2018-11-27T02:27:22.843Z,57.90
2018-11-27T02:28:22.831Z,59.10
2018-11-27T02:29:22.861Z,54.80
2018-11-27T02:30:22.828Z,57.10
2018-11-27T02:31:22.801Z,56.60
2018-11-27T02:32:22.787Z,60.30
2018-11-27T02:33:22.779Z,56.10
2018-11-27T02:34:22.764Z,57.20
2018-11-27T02:35:22.776Z,58.00
2018-11-27T02:36:22.740Z,55.40
2018-11-27T02:37:22.731Z,60.80
2018-11-27T02:38:22.731Z,60.40
2018-11-27T02:39:22.707Z,56.90
2018-11-27T02:40:22.691Z,59.10
2018-11-27T02:41:22.702Z,60.90
2018-11-27T02:42:22.689Z,59.60
2018-11-27T02:43:22.687Z,58.60
2018-11-27T02:44:22.650Z,61.80
2018-11-27T02:45:22.642Z,61.30
2018-11-27T02:46:22.644Z,60.10
2018-11-27T02:47:22.652Z,60.40
2018-11-27T02:48:22.615Z,61.60
2018-11-27T02:49:22.599Z,59.00
2018-11-27T02:50:22.594Z,61.00
2018-11-27T02:51:22.575Z,59.10
2018-11-27T02:52:22.588Z,58.00
2018-11-27T02:53:22.583Z,63.40
2018-11-27T02:54:22.544Z,61.40
2018-11-27T02:55:22.534Z,62.50
2018-11-27T02:56:22.522Z,60.00
2018-11-27T02:57:22.517Z,61.90
2018-11-27T02:58:22.521Z,58.80
2018-11-27T02:59:22.515Z,59.80
2018-11-27T03:00:22.475Z,59.40
2018-11-27T03:01:22.468Z,60.10
2018-11-27T03:02:22.458Z,55.80
2018-11-27T03:03:22.516Z,62.20
2018-11-27T03:04:22.434Z,58.40
2018-11-27T03:05:22.436Z,63.10
2018-11-27T03:06:22.414Z,60.10
2018-11-27T03:07:22.406Z,62.30
2018-11-27T03:08:22.686Z,62.10
2018-11-27T03:09:22.383Z,63.30
2018-11-27T03:10:22.373Z,59.30
2018-11-27T03:11:22.370Z,64.90
2018-11-27T03:12:22.347Z,60.00
2018-11-27T03:13:22.344Z,60.80
2018-11-27T03:14:22.351Z,59.40
2018-11-27T03:15:22.316Z,62.40
2018-11-27T03:16:22.314Z,58.60
2018-11-27T03:17:22.313Z,60.70
2018-11-27T03:18:22.288Z,60.40
2018-11-27T03:19:22.275Z,61.90
2018-11-27T03:20:22.297Z,62.60
2018-11-27T03:21:22.249Z,57.00
2018-11-27T03:22:22.242Z,61.10
2018-11-27T03:23:22.249Z,60.30
2018-11-27T03:24:22.222Z,62.10
2018-11-27T03:25:22.227Z,61.00
2018-11-27T03:26:22.198Z,56.60
2018-11-27T03:27:22.184Z,60.20
2018-11-27T03:28:22.220Z,59.20
2018-11-27T03:29:22.205Z,57.60
2018-11-27T03:30:22.196Z,58.90
2018-11-27T03:31:22.144Z,62.10
2018-11-27T03:32:22.136Z,60.50
2018-11-27T03:33:22.189Z,61.20
2018-11-27T03:34:22.115Z,63.40
2018-11-27T03:35:22.123Z,58.80
2018-11-27T03:36:22.115Z,63.20
2018-11-27T03:37:22.075Z,63.60
2018-11-27T03:38:22.075Z,62.60
2018-11-27T03:39:22.063Z,60.10
2018-11-27T03:40:22.049Z,60.60
2018-11-27T03:41:22.049Z,58.70
2018-11-27T03:42:22.527Z,62.70
2018-11-27T03:43:22.017Z,58.80
2018-11-27T03:44:22.007Z,60.50
2018-11-27T03:45:22.000Z,58.50
2018-11-27T03:46:21.986Z,57.90
2018-11-27T03:47:21.996Z,60.60
2018-11-27T03:48:21.970Z,57.90
2018-11-27T03:49:21.953Z,56.70
2018-11-27T03:50:21.936Z,59.40
2018-11-27T03:51:21.942Z,57.20
2018-11-27T03:52:21.932Z,56.00
2018-11-27T03:53:21.924Z,58.60
2018-11-27T03:54:21.901Z,56.10
2018-11-27T03:55:21.889Z,59.70
2018-11-27T03:56:21.873Z,58.50
2018-11-27T03:57:21.879Z,57.40
2018-11-27T03:58:21.856Z,58.60
2018-11-27T03:59:21.890Z,58.20
2018-11-27T04:00:21.848Z,56.90
2018-11-27T04:01:21.823Z,54.30
2018-11-27T04:02:21.818Z,59.40
2018-11-27T04:03:21.813Z,55.70
2018-11-27T04:04:21.790Z,55.00
2018-11-27T04:05:21.788Z,55.30
2018-11-27T04:06:21.767Z,56.50
2018-11-27T04:07:21.768Z,52.40
2018-11-27T04:08:21.772Z,56.10
2018-11-27T04:09:21.747Z,55.60
2018-11-27T04:10:21.725Z,55.40
2018-11-27T04:11:21.736Z,57.50
2018-11-27T04:12:21.700Z,56.00
2018-11-27T04:13:21.720Z,54.70
2018-11-27T04:14:21.696Z,54.60
2018-11-27T04:15:21.689Z,54.80
2018-11-27T04:16:21.682Z,53.80
2018-11-27T04:17:21.661Z,52.80
2018-11-27T04:18:21.646Z,52.70
2018-11-27T04:19:21.628Z,53.70
2018-11-27T04:20:21.635Z,56.50
2018-11-27T04:21:21.613Z,56.40
2018-11-27T04:22:21.595Z,56.00
2018-11-27T04:23:21.603Z,52.80
2018-11-27T04:24:21.611Z,54.30
2018-11-27T04:25:21.570Z,54.00
2018-11-27T04:26:21.553Z,54.10
2018-11-27T04:27:21.544Z,51.30
2018-11-27T04:28:21.528Z,51.30
2018-11-27T04:29:21.534Z,51.80
2018-11-27T04:30:21.542Z,52.60
2018-11-27T04:31:21.497Z,51.10
2018-11-27T04:32:21.487Z,54.60
2018-11-27T04:33:21.482Z,52.10
2018-11-27T04:34:21.466Z,51.10
2018-11-27T04:35:21.470Z,49.60
2018-11-27T04:36:21.461Z,52.10
2018-11-27T04:37:21.434Z,50.50
2018-11-27T04:38:21.425Z,50.50
2018-11-27T04:39:21.417Z,52.90
2018-11-27T04:40:21.400Z,50.60
2018-11-27T04:41:21.408Z,48.20
2018-11-27T04:42:21.392Z,51.10
2018-11-27T04:43:21.374Z,49.30
2018-11-27T04:44:21.357Z,48.20
2018-11-27T04:45:21.362Z,46.30
2018-11-27T04:46:21.336Z,46.40
2018-11-27T04:47:21.380Z,47.80
2018-11-27T04:48:21.332Z,49.10
2018-11-27T04:49:21.309Z,47.40
2018-11-27T04:50:21.301Z,47.50
2018-11-27T04:51:21.290Z,46.80
2018-11-27T04:52:21.275Z,50.50
2018-11-27T04:53:21.296Z,48.40
2018-11-27T04:54:21.258Z,45.70
2018-11-27T04:55:21.236Z,48.60
2018-11-27T04:56:21.235Z,52.80
2018-11-27T04:57:21.232Z,46.30
2018-11-27T04:58:21.208Z,53.80
2018-11-27T04:59:21.207Z,48.70
2018-11-27T05:00:21.188Z,49.60
2018-11-27T05:01:21.198Z,49.10
2018-11-27T05:02:21.160Z,48.60
2018-11-27T05:03:21.151Z,48.70
2018-11-27T05:04:21.142Z,48.60
2018-11-27T05:05:21.150Z,52.80
2018-11-27T05:06:21.135Z,48.90
2018-11-27T05:07:21.106Z,49.90
2018-11-27T05:08:21.099Z,49.60
2018-11-27T05:09:21.097Z,48.80
2018-11-27T05:10:21.078Z,49.00
2018-11-27T05:11:21.080Z,50.90
2018-11-27T05:12:21.053Z,49.00
2018-11-27T05:13:21.114Z,47.60
2018-11-27T05:14:21.068Z,49.10
2018-11-27T05:15:21.027Z,49.20
2018-11-27T05:16:21.015Z,49.40
2018-11-27T05:17:21.013Z,46.90
2018-11-27T05:18:20.986Z,50.40
2018-11-27T05:19:20.977Z,49.60
2018-11-27T05:20:20.982Z,48.50
2018-11-27T05:21:20.954Z,49.00
2018-11-27T05:22:20.945Z,50.00
2018-11-27T05:23:20.939Z,51.50
2018-11-27T05:24:20.922Z,52.10
2018-11-27T05:25:20.966Z,51.60
2018-11-27T05:26:20.920Z,48.80
2018-11-27T05:27:20.885Z,50.60
2018-11-27T05:28:20.883Z,47.40
2018-11-27T05:29:20.887Z,51.90
2018-11-27T05:30:20.857Z,47.80
2018-11-27T05:31:20.858Z,49.50
2018-11-27T05:32:20.841Z,47.10
2018-11-27T05:33:20.826Z,48.70
2018-11-27T05:34:20.828Z,46.20
2018-11-27T05:35:20.832Z,49.30
2018-11-27T05:36:20.791Z,48.10
2018-11-27T05:37:20.787Z,50.80
2018-11-27T05:38:20.784Z,48.10
2018-11-27T05:39:20.764Z,47.50
2018-11-27T05:40:20.754Z,48.90
2018-11-27T05:41:20.757Z,48.50
2018-11-27T05:42:20.741Z,50.00
2018-11-27T05:43:20.719Z,52.30
2018-11-27T05:44:20.705Z,46.30
2018-11-27T05:45:20.693Z,49.10
2018-11-27T05:46:20.695Z,47.60
2018-11-27T05:47:20.689Z,46.50
2018-11-27T05:48:20.664Z,49.80
2018-11-27T05:49:20.656Z,47.00
2018-11-27T05:50:20.636Z,48.30
2018-11-27T05:51:20.642Z,50.50
2018-11-27T05:52:20.654Z,47.50
2018-11-27T05:53:20.608Z,50.10
2018-11-27T05:54:20.597Z,48.30
2018-11-27T05:55:20.582Z,52.00
2018-11-27T05:56:20.619Z,48.50
2018-11-27T05:57:21.207Z,51.20
2018-11-27T05:58:20.568Z,49.50
2018-11-27T05:59:20.538Z,52.90
2018-11-27T06:00:20.530Z,49.90
2018-11-27T06:01:20.520Z,48.30
2018-11-27T06:02:20.530Z,51.10
2018-11-27T06:03:20.494Z,50.70
2018-11-27T06:04:20.490Z,50.60
2018-11-27T06:05:20.479Z,49.70
2018-11-27T06:06:20.489Z,48.80
2018-11-27T06:07:20.453Z,51.70
2018-11-27T06:08:20.521Z,51.10
2018-11-27T06:09:20.429Z,50.70
2018-11-27T06:10:20.420Z,48.10
2018-11-27T06:11:20.479Z,50.10
2018-11-27T06:12:20.401Z,51.90
2018-11-27T06:13:20.395Z,49.60
2018-11-27T06:14:20.398Z,51.50
2018-11-27T06:15:20.396Z,50.00
2018-11-27T06:16:20.357Z,52.70
2018-11-27T06:17:20.350Z,49.20
2018-11-27T06:18:20.353Z,51.20
2018-11-27T06:19:20.331Z,47.50
2018-11-27T06:20:20.319Z,52.20
2018-11-27T06:21:20.326Z,48.50
2018-11-27T06:22:20.296Z,48.00
2018-11-27T06:23:20.304Z,51.10
2018-11-27T06:24:20.276Z,51.40
2018-11-27T06:25:20.316Z,50.00
2018-11-27T06:26:20.260Z,51.40
2018-11-27T06:27:20.294Z,51.10
2018-11-27T06:28:20.260Z,51.10
2018-11-27T06:29:20.230Z,49.10
2018-11-27T06:30:20.214Z,48.30
2018-11-27T06:31:20.214Z,48.50
2018-11-27T06:32:21.504Z,51.00
2018-11-27T06:33:20.174Z,49.50
2018-11-27T06:34:20.162Z,50.50
2018-11-27T06:35:20.153Z,47.10
2018-11-27T06:36:20.162Z,48.30
2018-11-27T06:37:20.144Z,51.10
2018-11-27T06:38:20.124Z,52.00
2018-11-27T06:39:20.104Z,45.90
2018-11-27T06:40:20.180Z,50.00
2018-11-27T06:41:20.120Z,49.20
2018-11-27T06:42:20.094Z,47.40
2018-11-27T06:43:20.077Z,48.20
2018-11-27T06:44:20.061Z,45.60
2018-11-27T06:45:20.067Z,48.50
2018-11-27T06:46:20.033Z,47.70
2018-11-27T06:47:20.050Z,47.00
2018-11-27T06:48:20.013Z,48.30
2018-11-27T06:49:19.998Z,47.10
2018-11-27T06:50:20.007Z,45.10
2018-11-27T06:51:20.015Z,49.10
2018-11-27T06:52:19.970Z,48.70
2018-11-27T06:53:19.966Z,50.70
2018-11-27T06:54:19.942Z,46.90
2018-11-27T06:55:19.933Z,47.80
2018-11-27T06:56:19.937Z,47.20
2018-11-27T06:57:19.913Z,47.30
2018-11-27T06:58:19.913Z,50.60
2018-11-27T06:59:19.898Z,50.10
2018-11-27T07:00:19.882Z,47.20
2018-11-27T07:01:19.888Z,45.60
2018-11-27T07:02:19.862Z,46.60
2018-11-27T07:03:19.853Z,45.30
2018-11-27T07:04:19.858Z,49.30
2018-11-27T07:05:19.855Z,46.90
2018-11-27T07:06:19.872Z,45.80
2018-11-27T07:07:19.851Z,46.20
2018-11-27T07:08:19.806Z,46.60
2018-11-27T07:09:19.781Z,46.50
2018-11-27T07:10:19.776Z,47.40
2018-11-27T07:11:19.760Z,45.30
2018-11-27T07:12:19.743Z,46.60
2018-11-27T07:13:19.749Z,47.40
2018-11-27T07:14:19.737Z,44.80
2018-11-27T07:15:19.715Z,47.80
2018-11-27T07:16:19.717Z,43.90
2018-11-27T07:17:19.691Z,42.70
2018-11-27T07:18:19.701Z,44.40
2018-11-27T07:19:19.669Z,44.50
2018-11-27T07:20:19.669Z,46.30
2018-11-27T07:21:19.656Z,47.00
2018-11-27T07:22:19.640Z,43.80
2018-11-27T07:23:19.672Z,43.70
2018-11-27T07:24:19.616Z,44.50
2018-11-27T07:25:19.617Z,43.00
2018-11-27T07:26:19.594Z,42.10
2018-11-27T07:27:19.584Z,46.10
2018-11-27T07:28:19.575Z,47.70
2018-11-27T07:29:19.580Z,45.10
2018-11-27T07:30:20.327Z,44.30
2018-11-27T07:31:19.583Z,44.00
2018-11-27T07:32:19.535Z,44.20
2018-11-27T07:33:19.530Z,41.90
2018-11-27T07:34:19.525Z,43.70
2018-11-27T07:35:19.512Z,48.50
2018-11-27T07:36:19.487Z,49.20
2018-11-27T07:37:19.476Z,42.60
2018-11-27T07:38:19.462Z,46.60
2018-11-27T07:39:19.477Z,43.30
2018-11-27T07:40:19.442Z,43.80
2018-11-27T07:41:19.444Z,43.90
2018-11-27T07:42:19.438Z,46.60
2018-11-27T07:43:19.412Z,43.90
2018-11-27T07:44:19.409Z,44.80
2018-11-27T07:45:19.423Z,45.00
2018-11-27T07:46:19.376Z,43.90
2018-11-27T07:47:19.375Z,43.50
2018-11-27T07:48:19.362Z,44.50
2018-11-27T07:49:19.346Z,43.60
2018-11-27T07:50:19.370Z,45.30
2018-11-27T07:51:19.354Z,40.00
2018-11-27T07:52:19.330Z,40.90
2018-11-27T07:53:19.304Z,42.80
2018-11-27T07:54:19.294Z,44.80
2018-11-27T07:55:19.282Z,44.00
2018-11-27T07:56:19.299Z,42.20
2018-11-27T07:57:19.261Z,42.30
2018-11-27T07:58:19.251Z,45.70
2018-11-27T07:59:19.258Z,44.50
2018-11-27T08:00:19.229Z,42.20
2018-11-27T08:01:19.222Z,41.80
2018-11-27T08:02:19.232Z,42.90
2018-11-27T08:03:19.189Z,42.80
2018-11-27T08:04:19.194Z,43.10
2018-11-27T08:05:19.172Z,40.80
2018-11-27T08:06:19.180Z,41.10
2018-11-27T08:07:19.207Z,42.80
2018-11-27T08:08:19.144Z,41.30
2018-11-27T08:09:19.133Z,42.20
2018-11-27T08:10:19.128Z,40.30
2018-11-27T08:11:19.258Z,42.10
2018-11-27T08:12:19.115Z,41.30
2018-11-27T08:13:19.095Z,41.10
2018-11-27T08:14:19.075Z,42.70
2018-11-27T08:15:19.061Z,42.70
2018-11-27T08:16:19.084Z,41.60
2018-11-27T08:17:19.061Z,43.20
2018-11-27T08:18:19.045Z,41.30
2018-11-27T08:19:19.019Z,40.80
2018-11-27T08:20:19.003Z,41.90
2018-11-27T08:21:19.023Z,42.00
2018-11-27T08:22:19.128Z,39.40
2018-11-27T08:23:18.991Z,42.10
2018-11-27T08:24:18.964Z,43.70
2018-11-27T08:25:18.948Z,41.00
2018-11-27T08:26:18.948Z,45.10
2018-11-27T08:27:18.946Z,44.00
2018-11-27T08:28:18.932Z,42.20
2018-11-27T08:29:18.916Z,43.50
2018-11-27T08:30:18.922Z,42.20
2018-11-27T08:31:18.890Z,40.50
2018-11-27T08:32:18.878Z,42.30
2018-11-27T08:33:18.886Z,42.40
2018-11-27T08:34:18.859Z,42.90
2018-11-27T08:35:18.846Z,44.10
2018-11-27T08:36:18.829Z,42.90
2018-11-27T08:37:18.824Z,43.60
2018-11-27T08:38:18.812Z,40.00
2018-11-27T08:39:18.818Z,42.50
2018-11-27T08:40:18.790Z,42.70
2018-11-27T08:41:18.793Z,40.10
2018-11-27T08:42:18.773Z,45.10
2018-11-27T08:43:18.788Z,44.40
2018-11-27T08:44:18.746Z,43.80
2018-11-27T08:45:18.742Z,45.50
2018-11-27T08:46:18.723Z,43.80
2018-11-27T08:47:18.721Z,45.00
2018-11-27T08:48:18.730Z,44.90
2018-11-27T08:49:18.702Z,43.00
2018-11-27T08:50:18.677Z,43.20
2018-11-27T08:51:18.670Z,45.40
2018-11-27T08:52:18.657Z,40.30
2018-11-27T08:53:18.666Z,41.00
2018-11-27T08:54:18.666Z,41.60
2018-11-27T08:55:18.636Z,42.90
2018-11-27T08:56:18.613Z,42.90
2018-11-27T08:57:18.603Z,41.60
2018-11-27T08:58:18.600Z,42.50
2018-11-27T08:59:18.594Z,42.60
2018-11-27T09:00:18.580Z,43.80
2018-11-27T09:01:18.557Z,41.30
2018-11-27T09:02:18.551Z,40.90
2018-11-27T09:03:18.541Z,41.80
2018-11-27T09:04:18.534Z,40.70
2018-11-27T09:05:18.515Z,42.50
2018-11-27T09:06:18.534Z,40.80
2018-11-27T09:07:18.489Z,38.90
2018-11-27T09:08:18.504Z,44.80
2018-11-27T09:09:18.555Z,38.40
2018-11-27T09:10:18.464Z,38.50
2018-11-27T09:11:18.449Z,42.10
2018-11-27T09:12:18.441Z,39.10
2018-11-27T09:13:18.492Z,39.60
2018-11-27T09:14:18.416Z,39.60
2018-11-27T09:15:18.423Z,39.20
2018-11-27T09:16:18.400Z,38.30
2018-11-27T09:17:18.381Z,39.40
2018-11-27T09:18:18.391Z,37.50
2018-11-27T09:19:18.370Z,39.00
2018-11-27T09:20:18.351Z,39.00
2018-11-27T09:21:18.337Z,36.90
2018-11-27T09:22:18.346Z,37.40
2018-11-27T09:23:18.338Z,36.80
2018-11-27T09:24:18.308Z,39.10
2018-11-27T09:25:18.307Z,37.70
2018-11-27T09:26:18.288Z,38.20
2018-11-27T09:27:18.291Z,35.80
2018-11-27T09:28:18.266Z,39.70
2018-11-27T09:29:18.255Z,37.20
2018-11-27T09:30:18.241Z,38.80
2018-11-27T09:31:18.241Z,38.10
2018-11-27T09:32:18.224Z,38.30
2018-11-27T09:33:18.219Z,36.20
2018-11-27T09:34:18.199Z,36.60
2018-11-27T09:35:18.191Z,38.20
2018-11-27T09:36:18.180Z,36.50
2018-11-27T09:37:18.175Z,38.00
2018-11-27T09:38:18.171Z,39.20
2018-11-27T09:39:18.143Z,36.00
2018-11-27T09:40:18.182Z,37.60
2018-11-27T09:41:18.120Z,39.40
2018-11-27T09:42:18.110Z,36.10
2018-11-27T09:43:18.105Z,40.10
2018-11-27T09:44:18.115Z,36.00
2018-11-27T09:45:18.078Z,38.00
2018-11-27T09:46:18.093Z,38.50
2018-11-27T09:47:18.058Z,37.60
2018-11-27T09:48:18.047Z,36.30
2018-11-27T09:49:18.038Z,36.00
2018-11-27T09:50:18.028Z,33.60
2018-11-27T09:51:18.020Z,34.00
2018-11-27T09:52:18.040Z,34.30
2018-11-27T09:53:18.286Z,35.20
2018-11-27T09:54:18.171Z,36.10
2018-11-27T09:55:17.985Z,34.40
2018-11-27T09:56:17.958Z,36.50
2018-11-27T09:57:17.954Z,33.40
2018-11-27T09:58:17.970Z,35.70
2018-11-27T09:59:17.931Z,37.90
2018-11-27T10:00:17.930Z,36.60
2018-11-27T10:01:17.912Z,37.20
2018-11-27T10:02:17.910Z,35.90
2018-11-27T10:03:17.890Z,36.50
2018-11-27T10:04:17.894Z,36.90
2018-11-27T10:05:17.863Z,35.40
2018-11-27T10:06:17.850Z,35.60
2018-11-27T10:07:17.843Z,35.00
2018-11-27T10:08:17.852Z,35.40
2018-11-27T10:09:17.860Z,34.10
2018-11-27T10:10:17.810Z,35.10
2018-11-27T10:11:17.799Z,33.40
2018-11-27T10:12:17.791Z,33.00
2018-11-27T10:13:17.773Z,34.40
2018-11-27T10:14:17.771Z,35.10
2018-11-27T10:15:17.771Z,33.10
2018-11-27T10:16:17.748Z,35.20
2018-11-27T10:17:17.734Z,33.60
2018-11-27T10:18:17.722Z,34.40
2018-11-27T10:19:17.715Z,34.70
2018-11-27T10:20:17.717Z,33.90
2018-11-27T10:21:17.694Z,32.30
2018-11-27T10:22:17.693Z,33.50
2018-11-27T10:23:17.669Z,34.50
2018-11-27T10:24:17.672Z,33.30
2018-11-27T10:25:17.656Z,36.20
2018-11-27T10:26:17.637Z,33.10
2018-11-27T10:27:17.653Z,36.20
2018-11-27T10:28:17.617Z,34.20
2018-11-27T10:29:17.609Z,32.70
2018-11-27T10:30:17.603Z,35.70
2018-11-27T10:31:17.586Z,33.20
2018-11-27T10:32:17.584Z,32.00
2018-11-27T10:33:17.587Z,34.00
2018-11-27T10:34:17.597Z,32.10
2018-11-27T10:35:17.551Z,34.20
2018-11-27T10:36:17.530Z,33.50
2018-11-27T10:37:17.516Z,32.30
2018-11-27T10:38:17.502Z,35.40
2018-11-27T10:39:17.517Z,31.90
2018-11-27T10:40:17.491Z,32.80
2018-11-27T10:41:17.514Z,34.40
2018-11-27T10:42:17.496Z,31.90
2018-11-27T10:43:20.018Z,33.60
2018-11-27T10:44:17.464Z,32.80
2018-11-27T10:45:17.430Z,32.00
2018-11-27T10:46:17.420Z,30.50
2018-11-27T10:47:17.420Z,31.80
2018-11-27T10:48:17.397Z,34.00
2018-11-27T10:49:17.407Z,32.40
2018-11-27T10:50:17.377Z,30.50
2018-11-27T10:51:18.353Z,32.90
2018-11-27T10:52:17.368Z,30.20
2018-11-27T10:53:17.341Z,31.50
2018-11-27T10:54:17.342Z,30.40
2018-11-27T10:55:17.344Z,31.30
2018-11-27T10:56:17.328Z,30.60
2018-11-27T10:57:17.330Z,37.00
2018-11-27T10:58:17.294Z,31.80
2018-11-27T10:59:17.314Z,30.30
2018-11-27T11:00:17.285Z,30.90
2018-11-27T11:01:17.262Z,33.00
2018-11-27T11:02:17.251Z,32.50
2018-11-27T11:03:17.253Z,31.60
2018-11-27T11:04:17.223Z,31.20
2018-11-27T11:05:17.249Z,32.50
2018-11-27T11:06:17.229Z,32.70
2018-11-27T11:07:17.209Z,31.90
2018-11-27T11:08:17.196Z,31.50
2018-11-27T11:09:17.180Z,31.10
2018-11-27T11:10:17.177Z,32.40
2018-11-27T11:11:17.150Z,32.90
2018-11-27T11:12:17.139Z,32.90
2018-11-27T11:13:17.145Z,33.60
2018-11-27T11:14:17.126Z,32.90
2018-11-27T11:15:17.160Z,32.10
2018-11-27T11:16:17.105Z,31.90
2018-11-27T11:17:17.090Z,33.00
2018-11-27T11:18:17.098Z,31.60
2018-11-27T11:19:18.439Z,32.10
2018-11-27T11:20:17.058Z,31.90
2018-11-27T11:21:17.070Z,32.60
2018-11-27T11:22:17.047Z,33.10
2018-11-27T11:23:17.048Z,33.90
2018-11-27T11:24:17.034Z,33.50
2018-11-27T11:25:17.007Z,33.40
2018-11-27T11:26:17.004Z,34.40
2018-11-27T11:27:18.057Z,35.20
2018-11-27T11:28:16.969Z,34.00
2018-11-27T11:29:16.963Z,35.60
2018-11-27T11:30:16.953Z,34.00
2018-11-27T11:31:16.969Z,34.00
2018-11-27T11:32:16.925Z,34.70
2018-11-27T11:33:16.920Z,35.90
2018-11-27T11:34:16.903Z,34.70
2018-11-27T11:35:16.908Z,33.60
2018-11-27T11:36:16.886Z,34.80
2018-11-27T11:37:16.897Z,33.20
2018-11-27T11:38:16.861Z,38.00
2018-11-27T11:39:16.847Z,35.80
2018-11-27T11:40:16.836Z,33.70
2018-11-27T11:41:16.825Z,35.20
2018-11-27T11:42:16.822Z,32.80
2018-11-27T11:43:16.828Z,34.10
2018-11-27T11:44:16.845Z,34.10
2018-11-27T11:45:16.788Z,36.60
2018-11-27T11:46:16.964Z,36.00
2018-11-27T11:47:16.813Z,34.40
2018-11-27T11:48:16.801Z,33.70
2018-11-27T11:49:16.751Z,36.20
2018-11-27T11:50:16.737Z,34.60
2018-11-27T11:51:16.712Z,32.90
2018-11-27T11:52:16.717Z,35.70
2018-11-27T11:53:16.694Z,34.50
2018-11-27T11:54:17.426Z,34.10
2018-11-27T11:55:16.664Z,35.30
2018-11-27T11:56:16.654Z,35.20
2018-11-27T11:57:16.645Z,35.50
2018-11-27T11:58:17.403Z,35.10
2018-11-27T11:59:16.638Z,33.80
2018-11-27T12:00:16.648Z,35.40
2018-11-27T12:01:16.628Z,34.40
2018-11-27T12:02:16.597Z,33.10
2018-11-27T12:03:16.593Z,34.60
2018-11-27T12:04:16.592Z,32.40
2018-11-27T12:05:16.579Z,32.80
2018-11-27T12:06:16.574Z,32.10
2018-11-27T12:07:16.538Z,32.80
2018-11-27T12:08:16.565Z,33.60
2018-11-27T12:09:16.531Z,33.10
2018-11-27T12:10:16.526Z,31.30
2018-11-27T12:11:16.522Z,32.40
2018-11-27T12:12:16.481Z,30.60
2018-11-27T12:13:16.487Z,32.00
2018-11-27T12:14:16.473Z,30.80
2018-11-27T12:15:16.455Z,31.90
2018-11-27T12:16:16.453Z,32.30
2018-11-27T12:17:16.426Z,32.10
2018-11-27T12:18:16.417Z,30.40
2018-11-27T12:19:16.516Z,30.70
2018-11-27T12:20:16.401Z,36.70
2018-11-27T12:21:16.398Z,40.60
2018-11-27T12:22:16.376Z,40.20
2018-11-27T12:23:16.362Z,38.40
2018-11-27T12:24:16.347Z,40.20
2018-11-27T12:25:16.343Z,36.80
2018-11-27T12:26:16.357Z,34.10
2018-11-27T12:27:16.314Z,31.30
2018-11-27T12:28:16.307Z,29.20
2018-11-27T12:29:17.303Z,29.20
2018-11-27T12:30:16.282Z,29.10
2018-11-27T12:31:16.270Z,29.90
2018-11-27T12:32:16.284Z,30.20
2018-11-27T12:33:16.256Z,28.10
2018-11-27T12:34:16.239Z,30.40
2018-11-27T12:35:16.242Z,27.50
2018-11-27T12:36:16.234Z,31.40
2018-11-27T12:37:16.229Z,29.30
2018-11-27T12:38:16.225Z,31.50
2018-11-27T12:39:16.190Z,30.50
2018-11-27T12:40:16.179Z,30.10
2018-11-27T12:41:16.180Z,27.90
2018-11-27T12:42:16.154Z,27.90
2018-11-27T12:43:16.215Z,29.90
2018-11-27T12:44:16.176Z,30.00
2018-11-27T12:45:16.149Z,28.10
2018-11-27T12:46:16.127Z,28.10
2018-11-27T12:47:16.117Z,27.10
2018-11-27T12:48:16.097Z,27.70
2018-11-27T12:49:16.072Z,28.80
2018-11-27T12:50:16.069Z,27.40
2018-11-27T12:51:16.705Z,29.10
2018-11-27T12:52:16.070Z,28.60